SondeTracker

Meteorological Radiosondes Database

Operations

Sounding was ended - last measurement: 2020-07-05 13:05:26z

MAP
About Radiosonde

Number: R4330375

Launch Site:

Type: RS41

AUX: NO

Frequency: 403.002 MHz

Max Speed: 156 km/h at 14456 m

Average Speed: 94.15 km/h

Max Altitude: 27129 m

Average Ascent Speed: 6.11 m/s

Average Descent Speed: 21.24 m/s

Status: LOST

Status Changes
Launch Site Type AUX Frequency Status Finder Landing Point Description Changes made by
MHz LOST 0, 0 AUTO STATUS: Probably lost in the water [BOT]AUTO-STATUS - 2020-07-05 14:05:26z
APRS Statistics

Received Frames: 54

First Frame [UTC]: 2020-07-05 12:39:06z

Last Frame [UTC]: 2020-07-05 13:05:26z

Receivers: PP5UF-6

Flight Time: 00:26:20 h

Distance From First Measurement: 39.92 km

Nearest City: Paranaguá (BR) [91.15 km]

Nearest Hunter: [0.00 km]

Ground Altitude: -123 m

Distance from QTH: 0.00 km

APRS Data
Receiver Number Date/Time [UTC] φ λ Course [°] Speed [km/h] Altitude [m] Description
PP5UF-6R43303752020-07-05 13:05:26-25.7137-47.6265881439290Clb=-13.3m/s t=-32.9C 403.001 MHz Type=RS41-SGP Vaisala http://sondehub.org/R4330375 https://radiosondy.info/sonde.php?sondenumb
PP5UF-6R43303752020-07-05 13:05:06-25.7141-47.6385881419658Clb=-14.0m/s t=-36.1C 403.001 MHz Type=RS41-SGP Vaisala http://sondehub.org/R4330375 https://radiosondy.info/sonde.php?sondenumb
PP5UF-6R43303752020-07-05 13:04:06-25.7148-47.65819114310279Clb=-14.3m/s t=-40.0C 403.001 MHz Type=RS41-SGP Vaisala http://sondehub.org/R4330375 https://radiosondy.info/sonde.php?sondenumb
PP5UF-6R43303752020-07-05 13:03:46-25.7146-47.66599213710539Clb=-13.0m/s t=-42.4C 403.001 MHz Type=RS41-SGP Vaisala http://sondehub.org/R4330375 https://radiosondy.info/sonde.php?sondenumb
PP5UF-6R43303752020-07-05 13:03:06-25.7137-47.68229614811109Clb=-14.6m/s t=-46.9C 403.001 MHz Type=RS41-SGP Vaisala http://sondehub.org/R4330375 https://radiosondy.info/sonde.php?sondenumb
PP5UF-6R43303752020-07-05 13:02:46-25.7128-47.69059615011386Clb=-14.1m/s t=-49.2C 403.001 MHz Type=RS41-SGP Vaisala http://sondehub.org/R4330375 https://radiosondy.info/sonde.php?sondenumb
PP5UF-6R43303752020-07-05 13:02:06-25.7109-47.70669515011945Clb=-14.4m/s t=-52.6C 403.001 MHz Type=RS41-SGP Vaisala http://sondehub.org/R4330375 https://radiosondy.info/sonde.php?sondenumb
PP5UF-6R43303752020-07-05 13:01:06-25.7099-47.73299415012886Clb=-16.0m/s t=-60.8C 403.001 MHz Type=RS41-SGP Vaisala http://sondehub.org/R4330375 https://radiosondy.info/sonde.php?sondenumb
PP5UF-6R43303752020-07-05 13:00:46-25.7092-47.73959614613141Clb=-16.0m/s t=-63.0C 403.001 MHz Type=RS41-SGP Vaisala http://sondehub.org/R4330375 https://radiosondy.info/sonde.php?sondenumb
PP5UF-6R43303752020-07-05 13:00:26-25.7084-47.74769814613463Clb=-15.6m/s t=-64.8C 403.001 MHz Type=RS41-SGP Vaisala http://sondehub.org/R4330375 https://radiosondy.info/sonde.php?sondenumb
PP5UF-6R43303752020-07-05 13:00:06-25.7071-47.755710014813788Clb=-16.8m/s t=-67.2C 403.002 MHz Type=RS41-SGP Vaisala http://sondehub.org/R4330375 https://radiosondy.info/sonde.php?sondenumb
PP5UF-6R43303752020-07-05 12:59:46-25.7058-47.764110015414118Clb=-16.5m/s t=-67.9C 403.002 MHz Type=RS41-SGP Vaisala http://sondehub.org/R4330375 https://radiosondy.info/sonde.php?sondenumb
PP5UF-6R43303752020-07-05 12:59:26-25.7048-47.77269515614456Clb=-17.1m/s t=-67.7C 403.002 MHz Type=RS41-SGP Vaisala http://sondehub.org/R4330375 https://radiosondy.info/sonde.php?sondenumb
PP5UF-6R43303752020-07-05 12:59:06-25.7043-47.7818714414802Clb=-16.9m/s t=-68.9C 403.002 MHz Type=RS41-SGP Vaisala http://sondehub.org/R4330375 https://radiosondy.info/sonde.php?sondenumb
PP5UF-6R43303752020-07-05 12:58:26-25.7038-47.79889813715689Clb=-19.1m/s t=-73.0C 403.002 MHz Type=RS41-SGP Vaisala http://sondehub.org/R4330375 https://radiosondy.info/sonde.php?sondenumb
PP5UF-6R43303752020-07-05 12:58:06-25.7031-47.802910213315901Clb=-19.9m/s t=-71.7C 403.002 MHz Type=RS41-SGP Vaisala http://sondehub.org/R4330375 https://radiosondy.info/sonde.php?sondenumb
PP5UF-6R43303752020-07-05 12:57:46-25.7008-47.811110413516365Clb=-21.1m/s t=-71.0C 403.002 MHz Type=RS41-SGP Vaisala http://sondehub.org/R4330375 https://radiosondy.info/sonde.php?sondenumb
PP5UF-6R43303752020-07-05 12:56:46-25.6998-47.8297849417642Clb=-22.5m/s t=-70.6C 403.002 MHz Type=RS41-SGP Vaisala http://sondehub.org/R4330375 https://radiosondy.info/sonde.php?sondenumb
PP5UF-6R43303752020-07-05 12:56:26-25.7003-47.834907218059Clb=-22.9m/s t=-70.3C 403.002 MHz Type=RS41-SGP Vaisala http://sondehub.org/R4330375 https://radiosondy.info/sonde.php?sondenumb
PP5UF-6R43303752020-07-05 12:56:06-25.6999-47.83761136918563Clb=-24.3m/s t=-66.0C 403.002 MHz Type=RS41-SGP Vaisala http://sondehub.org/R4330375 https://radiosondy.info/sonde.php?sondenumb
PP5UF-6R43303752020-07-05 12:55:57-25.6981-47.84121077619039Clb=-25.9m/s t=-62.4C 403.002 MHz Type=RS41-SGP Vaisala http://sondehub.org/R4330375 https://radiosondy.info/sonde.php?sondenumb
PP5UF-6R43303752020-07-05 12:55:26-25.6971-47.84561019119565Clb=-27.0m/s t=-63.3C 403.002 MHz Type=RS41-SGP Vaisala http://sondehub.org/R4330375 https://radiosondy.info/sonde.php?sondenumb
PP5UF-6R43303752020-07-05 12:54:46-25.6956-47.85371077020670Clb=-28.7m/s t=-63.3C 403.002 MHz Type=RS41-SGP Vaisala http://sondehub.org/R4330375 https://radiosondy.info/sonde.php?sondenumb
PP5UF-6R43303752020-07-05 12:54:26-25.6948-47.8578888321252Clb=-30.0m/s t=-61.9C 403.002 MHz Type=RS41-SGP Vaisala http://sondehub.org/R4330375 https://radiosondy.info/sonde.php?sondenumb
PP5UF-6R43303752020-07-05 12:54:06-25.6952-47.8621898021864Clb=-30.2m/s t=-62.3C 403.002 MHz Type=RS41-SGP Vaisala http://sondehub.org/R4330375 https://radiosondy.info/sonde.php?sondenumb
PP5UF-6R43303752020-07-05 12:53:46-25.6955-47.8662746322497Clb=-34.1m/s t=-56.4C 403.002 MHz Type=RS41-SGP Vaisala http://sondehub.org/R4330375 https://radiosondy.info/sonde.php?sondenumb
PP5UF-6R43303752020-07-05 12:53:26-25.6956-47.8691135623187Clb=-35.4m/s t=-55.2C 403.002 MHz Type=RS41-SGP Vaisala http://sondehub.org/R4330375 https://radiosondy.info/sonde.php?sondenumb
PP5UF-6R43303752020-07-05 12:53:06-25.694-47.87161255423917Clb=-38.2m/s t=-59.0C 403.002 MHz Type=RS41-SGP Vaisala http://sondehub.org/R4330375 https://radiosondy.info/sonde.php?sondenumb
PP5UF-6R43303752020-07-05 12:52:46-25.6923-47.87381057624717Clb=-43.3m/s t=-56.8C 403.002 MHz Type=RS41-SGP Vaisala http://sondehub.org/R4330375 https://radiosondy.info/sonde.php?sondenumb
PP5UF-6R43303752020-07-05 12:51:46-25.6912-47.88621029326645Clb=-11.0m/s t=-48.0C 403.002 MHz Type=RS41-SGP Vaisala http://sondehub.org/R4330375 https://radiosondy.info/sonde.php?sondenumb
PP5UF-6R43303752020-07-05 12:51:26-25.6898-47.8911039127129Clb=-19.6m/s t=-47.5C 403.002 MHz Type=RS41-SGP Vaisala http://sondehub.org/R4330375 https://radiosondy.info/sonde.php?sondenumb
PP5UF-6R43303752020-07-05 12:51:06-25.6871-47.89991178326933Clb=7.0m/s t=-47.9C 403.002 MHz Type=RS41-SGP Vaisala http://sondehub.org/R4330375 https://radiosondy.info/sonde.php?sondenumber
PP5UF-6R43303752020-07-05 12:50:54-25.6868-47.90071158926908Clb=7.0m/s t=-47.8C 403.002 MHz Type=RS41-SGP Vaisala http://sondehub.org/R4330375 https://radiosondy.info/sonde.php?sondenumber
PP5UF-6R43303752020-07-05 12:50:26-25.6851-47.90671039426754Clb=6.2m/s t=-48.1C 403.002 MHz Type=RS41-SGP Vaisala http://sondehub.org/R4330375 https://radiosondy.info/sonde.php?sondenumber
PP5UF-6R43303752020-07-05 12:49:26-25.6825-47.9189958326441Clb=6.3m/s t=-49.1C 403.002 MHz Type=RS41-SGP Vaisala http://sondehub.org/R4330375 https://radiosondy.info/sonde.php?sondenumber
PP5UF-6R43303752020-07-05 12:49:06-25.6817-47.92381068726317Clb=5.8m/s t=-49.3C 403.002 MHz Type=RS41-SGP Vaisala http://sondehub.org/R4330375 https://radiosondy.info/sonde.php?sondenumber
PP5UF-6R43303752020-07-05 12:48:46-25.681-47.92771017626214Clb=4.9m/s t=-49.1C 403.002 MHz Type=RS41-SGP Vaisala http://sondehub.org/R4330375 https://radiosondy.info/sonde.php?sondenumber
PP5UF-6R43303752020-07-05 12:48:06-25.6807-47.9375806325925Clb=6.8m/s t=-51.2C 403.002 MHz Type=RS41-SGP Vaisala http://sondehub.org/R4330375 https://radiosondy.info/sonde.php?sondenumber
PP5UF-6R43303752020-07-05 12:47:46-25.6812-47.9437917825732Clb=4.5m/s t=-50.8C 403.002 MHz Type=RS41-SGP Vaisala http://sondehub.org/R4330375 https://radiosondy.info/sonde.php?sondenumber
PP5UF-6R43303752020-07-05 12:47:26-25.6812-47.9444838025712Clb=6.1m/s t=-50.9C 403.002 MHz Type=RS41-SGP Vaisala http://sondehub.org/R4330375 https://radiosondy.info/sonde.php?sondenumber
PP5UF-6R43303752020-07-05 12:47:06-25.6814-47.949846725572Clb=5.8m/s t=-52.4C 403.002 MHz Type=RS41-SGP Vaisala http://sondehub.org/R4330375 https://radiosondy.info/sonde.php?sondenumber
PP5UF-6R43303752020-07-05 12:46:46-25.6821-47.9524816525457Clb=6.5m/s t=-52.3C 403.002 MHz Type=RS41-SGP Vaisala http://sondehub.org/R4330375 https://radiosondy.info/sonde.php?sondenumber
PP5UF-6R43303752020-07-05 12:46:26-25.6829-47.9573867425305Clb=6.8m/s t=-52.0C 403.002 MHz Type=RS41-SGP Vaisala http://sondehub.org/R4330375 https://radiosondy.info/sonde.php?sondenumber
PP5UF-6R43303752020-07-05 12:45:26-25.6819-47.97151047024942Clb=6.4m/s t=-53.6C 403.002 MHz Type=RS41-SGP Vaisala http://sondehub.org/R4330375 https://radiosondy.info/sonde.php?sondenumber
PP5UF-6R43303752020-07-05 12:45:06-25.681-47.97381076724874Clb=6.0m/s t=-53.5C 403.002 MHz Type=RS41-SGP Vaisala http://sondehub.org/R4330375 https://radiosondy.info/sonde.php?sondenumber
PP5UF-6R43303752020-07-05 12:44:46-25.6787-47.9791385224673Clb=7.5m/s t=-58.2C 403.002 MHz Type=RS41-SGP Vaisala http://sondehub.org/R4330375 https://radiosondy.info/sonde.php?sondenumber
PP5UF-6R43303752020-07-05 12:44:06-25.6748-47.98291385424445Clb=6.0m/s t=-273.0C 403.002 MHz Type=RS41-SGP Vaisala http://sondehub.org/R4330375 https://radiosondy.info/sonde.php?sondenumbe
PP5UF-6R43303752020-07-05 12:43:46-25.6737-47.98381573324368Clb=7.4m/s t=-273.0C 403.002 MHz Type=RS41-SGP Vaisala http://sondehub.org/R4330375 https://radiosondy.info/sonde.php?sondenumbe
PP5UF-6R43303752020-07-05 12:43:06-25.67-47.98681255424084Clb=5.7m/s t=-273.0C 403.002 MHz Type=RS41 Vaisala http://sondehub.org/R4330375 https://radiosondy.info/sonde.php?sondenumber=R4
PP5UF-6R43303752020-07-05 12:42:26-25.6669-47.99261165923791Clb=8.0m/s t=-273.0C 403.002 MHz Type=RS41 Vaisala http://sondehub.org/R4330375 https://radiosondy.info/sonde.php?sondenumber=R4
PP5UF-6R43303752020-07-05 12:42:06-25.666-47.99461145923701Clb=4.9m/s t=-273.0C 403.002 MHz Type=RS41 Vaisala http://sondehub.org/R4330375 https://radiosondy.info/sonde.php?sondenumber=R4
PP5UF-6R43303752020-07-05 12:40:26-25.6609-48.0088915223067Clb=7.7m/s t=-273.0C 403.002 MHz Type=RS41 Vaisala http://sondehub.org/R4330375 https://radiosondy.info/sonde.php?sondenumber=R4
PP5UF-6R43303752020-07-05 12:39:26-25.6641-48.0197715922662Clb=5.0m/s t=-273.0C 403.002 MHz Type=RS41 Vaisala http://sondehub.org/R4330375 https://radiosondy.info/sonde.php?sondenumber=R4
PP5UF-6R43303752020-07-05 12:39:06-25.6644-48.0211765722611Clb=5.0m/s t=-273.0C 403.002 MHz Type=RS41 Vaisala http://sondehub.org/R4330375 https://radiosondy.info/sonde.php?sondenumber=R4